Time;durP1;ratioP1;P1;durP2;ratioP2;P2;SDS_P1;SDS_P2;PMS_P1;PMS_P2;Temp;Humidity;BMP_temperature;BMP_pressure;BME280_temperature;BME280_humidity;BME280_pressure;Samples;Min_cycle;Max_cycle;Signal;HPM_P1;HPM_P2
2021/07/23 00:01:44;;;;;;;4.53;3.03;;;;;;;19.87;57.71;101501.09;5980719;29;20258;-75
2021/07/23 00:04:51;;;;;;;2.80;2.70;;;;;;;20.06;57.71;101497.91;5979848;29;20221;-75
2021/07/23 00:07:56;;;;;;;3.15;2.95;;;;;;;20.08;56.96;101502.06;5980443;29;20193;-75
2021/07/23 00:11:01;;;;;;;2.80;2.67;;;;;;;20.17;57.31;101510.75;5981009;29;20201;-75
2021/07/23 00:14:05;;;;;;;2.90;2.80;;;;;;;20.04;57.93;101511.19;5978923;29;20387;-75
2021/07/23 00:17:09;;;;;;;3.03;2.92;;;;;;;20.09;57.84;101508.47;5979617;29;20500;-75
2021/07/23 00:20:15;;;;;;;2.60;2.60;;;;;;;19.95;58.72;101503.34;5979729;29;20216;-76
2021/07/23 00:23:19;;;;;;;3.08;2.90;;;;;;;19.93;59.14;101513.03;5980492;29;20200;-76
2021/07/23 00:26:23;;;;;;;2.92;2.83;;;;;;;19.88;59.23;101510.19;5979342;29;20528;-75
2021/07/23 00:29:28;;;;;;;2.67;2.67;;;;;;;19.81;59.44;101518.72;5978908;29;20337;-75
2021/07/23 00:32:32;;;;;;;2.70;2.50;;;;;;;19.73;60.08;101521.97;5979470;29;20484;-75
2021/07/23 00:35:38;;;;;;;2.70;2.60;;;;;;;19.58;61.11;101513.50;5979251;29;20201;-75
2021/07/23 00:38:43;;;;;;;3.45;2.95;;;;;;;19.62;60.54;101525.72;5978568;29;20301;-75
2021/07/23 00:41:48;;;;;;;3.25;3.05;;;;;;;19.64;60.63;101523.56;5978521;29;20404;-75
2021/07/23 00:44:54;;;;;;;3.22;2.97;;;;;;;19.75;60.64;101530.84;5978966;29;20239;-75
2021/07/23 00:48:01;;;;;;;3.63;3.05;;;;;;;19.56;61.16;101532.31;5979173;29;20568;-75
2021/07/23 00:51:09;;;;;;;3.40;3.28;;;;;;;19.62;60.65;101536.78;5980230;29;20193;-75
2021/07/23 00:54:15;;;;;;;4.13;3.58;;;;;;;19.55;59.76;101536.16;5979292;29;20322;-75
2021/07/23 00:57:20;;;;;;;3.30;3.20;;;;;;;19.63;59.21;101538.47;5979230;29;20251;-75
2021/07/23 01:00:24;;;;;;;3.13;3.00;;;;;;;19.52;58.68;101544.13;5979110;29;20258;-75
2021/07/23 01:03:36;;;;;;;3.40;3.30;;;;;;;19.39;58.35;101542.59;5977991;29;20276;-75
2021/07/23 01:06:46;;;;;;;3.47;3.28;;;;;;;19.38;57.66;101540.94;5993678;29;20264;-75
2021/07/23 01:09:51;;;;;;;4.43;3.17;;;;;;;19.35;56.95;101552.50;5979901;29;20266;-75
2021/07/23 01:13:25;;;;;;;4.47;3.10;;;;;;;19.29;56.51;101553.53;5967861;29;20216;-75
2021/07/23 01:16:31;;;;;;;3.70;2.78;;;;;;;19.08;55.19;101554.38;5993367;29;20528;-75
2021/07/23 01:19:41;;;;;;;3.80;2.90;;;;;;;19.01;55.19;101573.06;5979830;29;20203;-75
2021/07/23 01:22:50;;;;;;;3.10;2.90;;;;;;;19.11;55.14;101562.13;5978887;29;20199;-75
2021/07/23 01:25:57;;;;;;;3.50;3.30;;;;;;;19.07;55.10;101572.88;5983945;29;20284;-76
2021/07/23 01:29:03;;;;;;;3.42;3.28;;;;;;;18.97;55.76;101577.44;5983106;29;20194;-75
2021/07/23 01:32:08;;;;;;;3.05;2.95;;;;;;;18.93;55.90;101576.25;5984356;29;20200;-76
2021/07/23 01:35:14;;;;;;;3.30;3.13;;;;;;;18.95;55.67;101585.16;5983176;29;20216;-75
2021/07/23 01:38:23;;;;;;;3.47;2.90;;;;;;;18.90;55.46;101579.56;5983076;29;20499;-75
2021/07/23 01:41:31;;;;;;;2.70;2.60;;;;;;;18.73;55.90;101594.22;5983014;29;20481;-75
2021/07/23 01:44:36;;;;;;;2.78;2.67;;;;;;;18.47;56.30;101600.41;5983864;29;20193;-75
2021/07/23 01:47:40;;;;;;;2.88;2.78;;;;;;;18.31;56.89;101606.72;5982759;29;20224;-75
2021/07/23 01:50:44;;;;;;;2.47;2.47;;;;;;;18.37;57.10;101599.38;5982765;29;20499;-75
2021/07/23 01:53:50;;;;;;;3.15;3.00;;;;;;;18.43;56.96;101610.28;5983916;29;20209;-75
2021/07/23 01:56:56;;;;;;;3.08;2.97;;;;;;;18.37;57.13;101621.47;5984086;29;20196;-75
2021/07/23 02:00:00;;;;;;;2.85;2.65;;;;;;;18.17;57.54;101621.13;5983866;29;20199;-75
2021/07/23 02:03:05;;;;;;;2.90;2.80;;;;;;;18.08;58.10;101623.44;5982377;29;20621;-75
2021/07/23 02:06:12;;;;;;;3.15;2.88;;;;;;;18.29;57.43;101622.72;5983686;29;20225;-75
2021/07/23 02:09:17;;;;;;;2.80;2.70;;;;;;;18.28;56.98;101629.34;5982228;29;20217;-75
2021/07/23 02:12:42;;;;;;;2.63;2.55;;;;;;;18.10;57.64;101632.31;5982283;29;20209;-75
2021/07/23 02:15:53;;;;;;;2.80;2.70;;;;;;;18.27;57.34;101627.66;5981579;29;20307;-75
2021/07/23 02:18:59;;;;;;;2.97;2.75;;;;;;;18.38;56.89;101618.47;5981556;29;20412;-75
2021/07/23 02:22:19;;;;;;;4.60;3.55;;;;;;;18.27;57.12;101622.13;5981639;29;20215;-75
2021/07/23 02:25:24;;;;;;;2.92;2.72;;;;;;;18.18;58.07;101623.63;5981296;29;20327;-75
2021/07/23 02:28:30;;;;;;;3.47;3.28;;;;;;;18.18;57.98;101629.13;5982873;29;20193;-75
2021/07/23 02:31:35;;;;;;;3.40;3.30;;;;;;;18.08;58.14;101634.47;5981997;29;20216;-74
2021/07/23 02:34:44;;;;;;;3.13;3.00;;;;;;;18.04;58.31;101638.84;5980770;29;20465;-75
2021/07/23 02:37:49;;;;;;;2.83;2.60;;;;;;;18.06;58.47;101636.66;5981376;29;20276;-75
2021/07/23 02:40:54;;;;;;;3.15;3.00;;;;;;;18.13;58.18;101648.38;5982980;29;20256;-75
2021/07/23 02:44:00;;;;;;;3.08;2.70;;;;;;;18.22;58.12;101646.91;5981743;29;20499;-75
2021/07/23 02:47:04;;;;;;;3.35;2.90;;;;;;;18.16;58.17;101647.88;5982897;29;20262;-75
2021/07/23 02:50:11;;;;;;;3.10;3.00;;;;;;;18.12;57.96;101646.72;5982504;29;20200;-74
2021/07/23 02:53:23;;;;;;;3.55;3.25;;;;;;;18.01;58.48;101662.25;5981674;29;20220;-75
2021/07/23 02:56:28;;;;;;;3.42;3.22;;;;;;;17.98;58.65;101657.22;5982738;29;20201;-75
2021/07/23 02:59:36;;;;;;;3.33;3.13;;;;;;;17.92;58.94;101657.38;5982516;29;20224;-75
2021/07/23 03:02:41;;;;;;;2.97;2.88;;;;;;;17.77;59.08;101670.88;5980035;29;20358;-75
2021/07/23 03:05:45;;;;;;;3.50;3.15;;;;;;;17.64;58.84;101665.63;5980811;29;20221;-75
2021/07/23 03:08:58;;;;;;;2.88;2.72;;;;;;;17.70;58.74;101667.38;5980835;29;20355;-75
2021/07/23 03:12:03;;;;;;;4.05;3.00;;;;;;;17.63;58.58;101658.41;5980654;29;20213;-75
2021/07/23 03:15:14;;;;;;;2.90;2.70;;;;;;;17.66;58.18;101657.94;5980838;29;20250;-75
2021/07/23 03:18:20;;;;;;;3.20;2.90;;;;;;;17.80;58.04;101670.34;5980737;29;20220;-75
2021/07/23 03:21:25;;;;;;;2.90;2.70;;;;;;;17.75;58.26;101667.50;5980844;29;20208;-75
2021/07/23 03:24:33;;;;;;;2.42;2.42;;;;;;;17.70;58.81;101670.16;5980679;29;20287;-75
2021/07/23 03:27:41;;;;;;;3.80;2.80;;;;;;;17.64;58.90;101660.09;5980296;29;20233;-75
2021/07/23 03:31:01;;;;;;;3.28;3.10;;;;;;;17.49;59.31;101669.69;5980646;29;20364;-75
2021/07/23 03:34:10;;;;;;;2.78;2.63;;;;;;;17.43;59.56;101687.22;5980766;29;20216;-75
2021/07/23 03:37:35;;;;;;;2.40;2.30;;;;;;;17.61;59.32;101671.63;5980562;29;20543;-75
2021/07/23 03:40:48;;;;;;;3.33;2.65;;;;;;;17.68;59.01;101669.56;5995470;29;20276;-75
2021/07/23 03:43:54;;;;;;;3.15;2.92;;;;;;;17.73;59.09;101675.19;5979957;29;20370;-75
2021/07/23 03:47:07;;;;;;;2.30;2.20;;;;;;;17.62;59.28;101676.88;5980128;29;20268;-75
2021/07/23 03:50:13;;;;;;;2.88;2.67;;;;;;;17.58;59.51;101678.47;5979396;29;20275;-75
2021/07/23 03:53:27;;;;;;;4.57;2.60;;;;;;;17.60;59.86;101689.25;5980097;29;20209;-75
2021/07/23 03:56:37;;;;;;;2.72;2.63;;;;;;;17.54;60.00;101681.97;5979578;29;20386;-75
2021/07/23 03:59:45;;;;;;;2.63;2.50;;;;;;;17.59;60.00;101685.66;5978944;29;20399;-75
2021/07/23 04:02:52;;;;;;;2.85;2.65;;;;;;;17.59;60.02;101684.81;5979614;29;20264;-75
2021/07/23 04:05:57;;;;;;;3.67;2.60;;;;;;;17.61;59.84;101694.53;5979508;29;20460;-75
2021/07/23 04:09:01;;;;;;;3.13;2.67;;;;;;;17.63;59.91;101686.00;5979913;29;20416;-75
2021/07/23 04:12:06;;;;;;;2.97;2.90;;;;;;;17.74;59.51;101691.53;5979738;29;20540;-75
2021/07/23 04:15:15;;;;;;;2.70;2.50;;;;;;;17.78;58.99;101683.56;5979734;29;20215;-75
2021/07/23 04:18:41;;;;;;;2.55;2.42;;;;;;;17.65;58.92;101689.34;5973472;29;20216;-76
2021/07/23 04:22:11;;;;;;;2.30;2.22;;;;;;;17.67;59.09;101692.75;5977782;29;20518;-75
2021/07/23 04:25:40;;;;;;;4.32;2.45;;;;;;;17.71;58.82;101691.16;5978571;29;20309;-75
2021/07/23 04:28:48;;;;;;;2.38;2.13;;;;;;;17.73;58.81;101692.59;5979640;29;20227;-75
2021/07/23 04:31:54;;;;;;;3.33;2.40;;;;;;;17.67;58.94;101692.75;5979540;29;20289;-75
2021/07/23 04:35:00;;;;;;;2.50;2.22;;;;;;;17.71;58.47;101702.19;5978907;29;20216;-75
2021/07/23 04:38:05;;;;;;;2.50;2.40;;;;;;;17.64;58.41;101705.06;5979312;29;20260;-75
2021/07/23 04:41:18;;;;;;;2.28;2.17;;;;;;;17.52;58.36;101718.91;5979462;29;20208;-75
2021/07/23 04:44:31;;;;;;;2.67;2.10;;;;;;;17.51;58.22;101714.41;5979442;29;20318;-75
2021/07/23 04:47:36;;;;;;;2.28;2.17;;;;;;;17.67;58.10;101714.81;5979077;29;20252;-75
2021/07/23 04:50:44;;;;;;;2.00;1.90;;;;;;;17.65;57.46;101722.47;5978428;29;20285;-75
2021/07/23 04:54:11;;;;;;;2.00;1.90;;;;;;;17.52;57.54;101724.41;5953879;29;20512;-75
2021/07/23 04:57:41;;;;;;;2.97;2.10;;;;;;;17.61;57.27;101726.81;5979260;29;20488;-75
2021/07/23 05:00:45;;;;;;;2.33;2.13;;;;;;;17.54;57.33;101726.91;5979704;29;20224;-75
2021/07/23 05:03:50;;;;;;;1.85;1.85;;;;;;;17.58;57.27;101721.78;5980592;29;20240;-75
2021/07/23 05:06:56;;;;;;;1.80;1.80;;;;;;;17.61;56.86;101729.56;5980198;29;20193;-75
2021/07/23 05:10:02;;;;;;;1.83;1.73;;;;;;;17.68;56.59;101738.56;5978239;29;20286;-75
2021/07/23 05:13:07;;;;;;;1.60;1.60;;;;;;;17.66;56.46;101724.16;5977805;29;20239;-75
2021/07/23 05:16:12;;;;;;;1.85;1.65;;;;;;;17.70;56.30;101733.63;5980059;29;20193;-75
2021/07/23 05:19:17;;;;;;;2.25;1.70;;;;;;;17.64;56.32;101740.13;5979786;29;20197;-75
2021/07/23 05:22:22;;;;;;;1.90;1.80;;;;;;;17.62;56.15;101739.50;5979954;29;20256;-76
2021/07/23 05:25:26;;;;;;;1.88;1.75;;;;;;;17.68;56.41;101738.56;5978578;29;20213;-75
2021/07/23 05:28:31;;;;;;;1.80;1.70;;;;;;;17.78;56.05;101727.72;5978997;29;20430;-75
2021/07/23 05:31:42;;;;;;;2.55;1.92;;;;;;;17.81;55.63;101743.81;5978876;29;20493;-75
2021/07/23 05:34:46;;;;;;;2.40;1.80;;;;;;;17.76;55.74;101741.78;5979640;29;20294;-75
2021/07/23 05:37:51;;;;;;;1.60;1.55;;;;;;;17.81;55.45;101744.66;5980005;29;20228;-75
2021/07/23 05:40:55;;;;;;;1.58;1.40;;;;;;;17.82;55.15;101740.00;5978633;29;20437;-75
2021/07/23 05:43:59;;;;;;;1.80;1.70;;;;;;;17.91;55.22;101733.00;5979917;29;20244;-75
2021/07/23 05:47:05;;;;;;;2.17;1.38;;;;;;;18.05;54.61;101745.44;5978703;29;20488;-75
2021/07/23 05:50:11;;;;;;;1.45;1.45;;;;;;;18.13;54.15;101747.81;5978413;29;20283;-75
2021/07/23 05:53:17;;;;;;;1.80;1.70;;;;;;;18.30;53.40;101745.13;5978721;29;20201;-76
2021/07/23 05:56:21;;;;;;;1.55;1.50;;;;;;;18.43;53.33;101748.44;5979392;29;20224;-75
2021/07/23 05:59:25;;;;;;;1.95;1.50;;;;;;;18.52;52.94;101746.13;5979685;29;20232;-75
2021/07/23 06:02:30;;;;;;;1.55;1.45;;;;;;;18.58;52.82;101754.28;5979209;29;20244;-75
2021/07/23 06:05:34;;;;;;;2.35;1.70;;;;;;;18.57;52.40;101738.78;5977589;29;20212;-76
2021/07/23 06:08:40;;;;;;;1.17;1.17;;;;;;;18.73;52.28;101743.50;5978419;29;20443;-76
2021/07/23 06:11:45;;;;;;;1.50;1.50;;;;;;;18.74;51.89;101739.66;5981672;29;20200;-76
2021/07/23 06:14:49;;;;;;;1.40;1.40;;;;;;;18.93;51.21;101737.47;5982510;29;20362;-76
2021/07/23 06:17:53;;;;;;;1.45;1.40;;;;;;;18.74;51.33;101744.34;5983608;29;20199;-76
2021/07/23 06:20:57;;;;;;;1.58;1.48;;;;;;;19.03;51.31;101739.59;5982910;29;20200;-76
2021/07/23 06:24:02;;;;;;;1.80;1.80;;;;;;;19.14;51.30;101746.94;5983167;29;20224;-76
2021/07/23 06:27:07;;;;;;;1.45;1.40;;;;;;;18.99;50.72;101753.06;5983818;29;20260;-76
2021/07/23 06:30:13;;;;;;;1.48;1.48;;;;;;;19.07;50.34;101744.38;5982932;29;20301;-77
2021/07/23 06:33:17;;;;;;;2.30;1.60;;;;;;;19.13;50.50;101737.00;5981990;29;20511;-76
2021/07/23 06:36:21;;;;;;;1.40;1.40;;;;;;;19.31;50.66;101745.03;5982457;29;20192;-76
2021/07/23 06:39:29;;;;;;;4.03;1.60;;;;;;;19.45;50.17;101740.84;5982006;29;20506;-76
2021/07/23 06:42:35;;;;;;;4.15;1.77;;;;;;;19.53;50.94;101726.56;5982838;29;20252;-76
2021/07/23 06:45:39;;;;;;;3.10;1.60;;;;;;;19.26;50.03;101747.69;5981700;29;20215;-76
2021/07/23 06:48:43;;;;;;;1.63;1.50;;;;;;;19.43;50.21;101736.66;5981641;29;20532;-76
2021/07/23 06:51:47;;;;;;;1.38;1.38;;;;;;;19.49;49.48;101752.25;5981620;29;20418;-76
2021/07/23 06:54:54;;;;;;;1.17;1.17;;;;;;;19.58;49.55;101754.34;5981741;29;20192;-76
2021/07/23 06:57:59;;;;;;;1.40;1.40;;;;;;;19.60;49.91;101743.84;5982851;29;20200;-76
2021/07/23 07:01:07;;;;;;;1.38;1.33;;;;;;;19.49;49.31;101736.47;5980494;29;20212;-76
2021/07/23 07:04:11;;;;;;;1.35;1.35;;;;;;;19.65;49.63;101752.22;5981261;29;20285;-76
2021/07/23 07:07:16;;;;;;;1.40;1.40;;;;;;;19.81;49.25;101745.81;5982249;29;20197;-76
2021/07/23 07:10:21;;;;;;;1.58;1.58;;;;;;;20.02;48.78;101729.44;5981066;29;20227;-76
2021/07/23 07:13:26;;;;;;;1.40;1.40;;;;;;;19.89;48.77;101742.59;5981957;29;20433;-74
2021/07/23 07:16:30;;;;;;;1.30;1.30;;;;;;;19.75;48.11;101746.81;5981692;29;20197;-75
2021/07/23 07:19:34;;;;;;;1.38;1.38;;;;;;;19.57;48.71;101738.81;5980968;29;20262;-75
2021/07/23 07:22:40;;;;;;;1.67;1.58;;;;;;;19.81;49.42;101722.81;5981377;29;20274;-75
2021/07/23 07:25:45;;;;;;;1.65;1.55;;;;;;;19.65;49.11;101741.13;5981780;29;20200;-75
2021/07/23 07:28:50;;;;;;;4.63;1.77;;;;;;;19.92;48.80;101736.53;5980274;29;20229;-75
2021/07/23 07:31:56;;;;;;;1.35;1.35;;;;;;;19.96;48.41;101737.69;5981321;29;20231;-76
2021/07/23 07:35:00;;;;;;;1.67;1.60;;;;;;;19.71;48.63;101750.34;5981703;29;20350;-76
2021/07/23 07:38:05;;;;;;;3.67;1.77;;;;;;;20.00;48.98;101738.84;5981669;29;20193;-76
2021/07/23 07:41:15;;;;;;;1.38;1.33;;;;;;;19.85;48.92;101746.94;5981548;29;20203;-75
2021/07/23 07:44:19;;;;;;;3.90;1.60;;;;;;;19.95;48.52;101747.09;5980949;29;20211;-75
2021/07/23 07:47:24;;;;;;;4.38;1.48;;;;;;;19.97;46.21;101750.47;5981364;29;20193;-75
2021/07/23 07:50:28;;;;;;;1.60;1.60;;;;;;;20.00;47.03;101749.91;5980843;29;20221;-75
2021/07/23 07:53:32;;;;;;;1.63;1.63;;;;;;;19.87;46.16;101755.88;5981121;29;20216;-75
2021/07/23 07:56:37;;;;;;;1.58;1.58;;;;;;;19.90;46.62;101760.06;5981038;29;20229;-75
2021/07/23 07:59:42;;;;;;;5.22;1.65;;;;;;;19.97;46.67;101758.75;5979797;29;20257;-75
2021/07/23 08:02:47;;;;;;;1.95;1.85;;;;;;;20.12;46.51;101751.72;5979749;29;20240;-75
2021/07/23 08:06:01;;;;;;;1.98;1.85;;;;;;;20.17;45.98;101760.09;5980696;29;20193;-75
2021/07/23 08:09:08;;;;;;;1.70;1.60;;;;;;;20.39;46.27;101759.00;5979923;29;20293;-75
2021/07/23 08:12:13;;;;;;;1.85;1.75;;;;;;;20.37;45.44;101763.16;5979861;29;20193;-75
2021/07/23 08:15:18;;;;;;;1.50;1.50;;;;;;;20.43;45.11;101759.34;5980223;29;20193;-76
2021/07/23 08:18:24;;;;;;;1.95;1.85;;;;;;;20.41;45.38;101764.31;5980884;29;20199;-75
2021/07/23 08:21:30;;;;;;;5.78;1.45;;;;;;;20.32;44.94;101766.69;5980958;29;20197;-75
2021/07/23 08:24:34;;;;;;;1.92;1.83;;;;;;;20.22;44.58;101762.94;5980484;29;20194;-75
2021/07/23 08:27:40;;;;;;;1.67;1.60;;;;;;;20.36;46.08;101758.72;5979442;29;20193;-76
2021/07/23 08:30:44;;;;;;;2.95;1.65;;;;;;;20.33;45.09;101768.38;5980457;29;20220;-75
2021/07/23 08:33:49;;;;;;;2.03;1.90;;;;;;;20.30;45.56;101770.81;5979793;29;20193;-75
2021/07/23 08:36:53;;;;;;;2.70;1.98;;;;;;;20.43;45.57;101765.72;5980534;29;20193;-76
2021/07/23 08:39:57;;;;;;;2.83;1.60;;;;;;;20.08;44.92;101761.66;5980586;29;20236;-75
2021/07/23 08:43:03;;;;;;;1.73;1.63;;;;;;;20.21;45.75;101761.28;5980155;29;20193;-76
2021/07/23 08:46:08;;;;;;;1.80;1.70;;;;;;;20.11;45.36;101761.16;5980267;29;20193;-77
2021/07/23 08:49:14;;;;;;;5.28;1.80;;;;;;;20.14;45.59;101760.63;5980176;29;20193;-75
2021/07/23 08:52:37;;;;;;;1.60;1.60;;;;;;;20.16;45.62;101775.06;5978989;29;20197;-75
2021/07/23 08:55:41;;;;;;;1.92;1.92;;;;;;;20.15;45.61;101767.84;5978167;29;20240;-75
2021/07/23 08:58:46;;;;;;;5.07;1.85;;;;;;;20.13;45.79;101770.03;5980154;29;20498;-76
2021/07/23 09:01:58;;;;;;;5.47;1.70;;;;;;;19.99;45.83;101769.56;5979365;29;20209;-76
2021/07/23 09:05:14;;;;;;;1.90;1.80;;;;;;;20.10;45.99;101770.53;5979090;29;20260;-76
2021/07/23 09:08:22;;;;;;;1.70;1.70;;;;;;;20.11;45.19;101761.97;5980254;29;20197;-76
2021/07/23 09:11:28;;;;;;;1.95;1.90;;;;;;;20.21;46.00;101766.81;5979033;29;20543;-75
2021/07/23 09:14:34;;;;;;;3.92;2.08;;;;;;;20.34;45.48;101766.44;5979836;29;20229;-75
2021/07/23 09:17:42;;;;;;;2.22;1.70;;;;;;;20.24;45.10;101760.78;5980333;29;20197;-75
2021/07/23 09:20:54;;;;;;;2.38;1.83;;;;;;;20.27;45.93;101765.78;5977751;29;20212;-75
2021/07/23 09:23:58;;;;;;;2.17;2.03;;;;;;;20.31;45.19;101766.97;5978560;29;20425;-74
2021/07/23 09:27:03;;;;;;;2.22;1.75;;;;;;;20.39;45.00;101772.06;5978663;29;20397;-74
2021/07/23 09:30:10;;;;;;;1.80;1.70;;;;;;;20.42;45.78;101764.03;5978624;29;20451;-75
2021/07/23 09:33:31;;;;;;;1.70;1.70;;;;;;;20.18;44.90;101767.34;5978851;29;20201;-74
2021/07/23 09:36:35;;;;;;;1.98;1.75;;;;;;;20.32;45.02;101768.63;5979602;29;20193;-75
2021/07/23 09:39:59;;;;;;;1.75;1.75;;;;;;;20.37;44.75;101765.91;5979450;29;20194;-75
2021/07/23 09:43:03;;;;;;;2.88;1.67;;;;;;;20.40;43.79;101765.41;5979647;29;20200;-75
2021/07/23 09:46:35;;;;;;;2.00;1.70;;;;;;;20.27;44.02;101766.63;5982480;29;20256;-75
2021/07/23 09:49:45;;;;;;;1.70;1.70;;;;;;;20.49;43.84;101770.22;5984007;29;20270;-75
2021/07/23 09:52:51;;;;;;;2.05;1.92;;;;;;;20.22;44.99;101779.56;5983820;29;20201;-75
2021/07/23 09:55:55;;;;;;;2.03;1.92;;;;;;;20.17;43.98;101771.19;5983973;29;20242;-76
2021/07/23 09:59:03;;;;;;;2.05;1.98;;;;;;;20.29;43.63;101774.69;5983833;29;20193;-75
2021/07/23 10:02:16;;;;;;;1.35;1.35;;;;;;;20.50;43.38;101760.81;5983022;29;20237;-76
2021/07/23 10:05:27;;;;;;;1.70;1.67;;;;;;;20.48;43.53;101767.72;5981818;29;20209;-75
2021/07/23 10:08:34;;;;;;;1.67;1.50;;;;;;;20.50;43.67;101771.06;5982265;29;20193;-75
2021/07/23 10:11:41;;;;;;;1.70;1.70;;;;;;;20.45;43.80;101762.69;5983698;29;20221;-75
2021/07/23 10:14:47;;;;;;;2.03;1.77;;;;;;;20.54;43.50;101766.69;5983525;29;20193;-75
2021/07/23 10:17:54;;;;;;;1.48;1.48;;;;;;;20.42;43.35;101764.03;5982940;29;20200;-75
2021/07/23 10:21:00;;;;;;;1.70;1.58;;;;;;;20.51;44.16;101761.66;5982281;29;20196;-75
2021/07/23 10:24:08;;;;;;;2.30;1.70;;;;;;;20.60;43.46;101760.06;5982322;29;20204;-75
2021/07/23 10:27:13;;;;;;;2.83;1.55;;;;;;;20.58;43.32;101762.28;5982251;29;20272;-75
2021/07/23 10:30:31;;;;;;;3.50;1.60;;;;;;;20.64;43.40;101752.94;5981903;29;20200;-76
2021/07/23 10:33:52;;;;;;;4.75;1.90;;;;;;;20.52;43.21;101746.69;5983060;29;20200;-76
2021/07/23 10:36:57;;;;;;;1.60;1.60;;;;;;;20.65;43.56;101756.53;5982338;29;20234;-76
2021/07/23 10:40:13;;;;;;;1.77;1.70;;;;;;;20.69;43.42;101747.44;5983187;29;20265;-76
2021/07/23 10:43:34;;;;;;;1.73;1.70;;;;;;;20.77;43.29;101749.72;5982131;29;20395;-76
2021/07/23 10:46:57;;;;;;;2.95;2.70;;;;;;;20.55;43.80;101746.16;5983432;29;20223;-76
2021/07/23 10:50:03;;;;;;;1.70;1.60;;;;;;;20.56;43.41;101745.06;5983129;29;20261;-76
2021/07/23 10:53:36;;;;;;;1.40;1.30;;;;;;;20.60;43.26;101760.91;5983103;29;20250;-75
2021/07/23 10:57:14;;;;;;;1.60;1.50;;;;;;;20.72;42.82;101740.53;5981825;29;20271;-78
2021/07/23 11:00:45;;;;;;;1.70;1.70;;;;;;;20.82;42.95;101740.63;5979814;29;20209;-74
2021/07/23 11:04:01;;;;;;;1.42;1.40;;;;;;;20.99;43.07;101735.78;5981000;29;20244;-75
2021/07/23 11:07:08;;;;;;;1.85;1.50;;;;;;;20.96;42.78;101734.34;5981099;29;20393;-75
2021/07/23 11:10:20;;;;;;;1.30;1.30;;;;;;;21.03;42.85;101726.66;5982413;29;20208;-76
2021/07/23 11:13:24;;;;;;;1.63;1.63;;;;;;;20.95;42.52;101735.47;5981778;29;20227;-75
2021/07/23 11:16:28;;;;;;;1.75;1.67;;;;;;;20.81;42.79;101733.38;5981925;29;20228;-77
2021/07/23 11:19:32;;;;;;;1.75;1.65;;;;;;;20.91;41.93;101731.53;5980980;29;20469;-76
2021/07/23 11:22:38;;;;;;;3.40;1.60;;;;;;;21.14;43.25;101734.00;5981718;29;20306;-76
2021/07/23 11:25:49;;;;;;;4.40;1.50;;;;;;;21.07;41.81;101718.66;5982128;29;20192;-75
2021/07/23 11:28:56;;;;;;;3.03;1.45;;;;;;;21.24;42.07;101721.31;5981889;29;20225;-75
2021/07/23 11:32:07;;;;;;;1.42;1.33;;;;;;;21.31;41.77;101727.47;5980962;29;20221;-76
2021/07/23 11:35:12;;;;;;;2.75;2.13;;;;;;;21.38;41.29;101716.97;5980796;29;20481;-75
2021/07/23 11:38:19;;;;;;;2.45;1.80;;;;;;;21.55;42.46;101720.38;5981827;29;20197;-75
2021/07/23 11:41:23;;;;;;;1.50;1.40;;;;;;;21.54;42.44;101725.13;5981960;29;20204;-75
2021/07/23 11:44:31;;;;;;;2.05;1.95;;;;;;;21.55;41.64;101717.59;5981505;29;20194;-75
2021/07/23 11:47:39;;;;;;;1.80;1.70;;;;;;;21.67;41.10;101721.03;5980258;29;20485;-76
2021/07/23 11:50:54;;;;;;;1.90;1.80;;;;;;;21.60;40.63;101720.41;5980341;29;20256;-75
2021/07/23 11:54:00;;;;;;;1.55;1.55;;;;;;;21.38;40.62;101728.06;5980411;29;20290;-76
2021/07/23 11:57:04;;;;;;;1.77;1.70;;;;;;;21.64;40.62;101718.78;5981155;29;20193;-75
2021/07/23 12:00:22;;;;;;;1.48;1.48;;;;;;;21.57;39.90;101720.97;5981037;29;20225;-75
2021/07/23 12:03:28;;;;;;;3.13;1.95;;;;;;;21.74;39.83;101718.84;5980218;29;20237;-75
2021/07/23 12:06:36;;;;;;;1.70;1.70;;;;;;;21.91;40.21;101722.28;5979995;29;20193;-75
2021/07/23 12:09:41;;;;;;;1.40;1.40;;;;;;;21.99;39.90;101715.38;5980580;29;20197;-75
2021/07/23 12:12:48;;;;;;;1.52;1.52;;;;;;;21.95;39.13;101720.66;5980438;29;20221;-75
2021/07/23 12:15:55;;;;;;;1.50;1.50;;;;;;;21.93;39.86;101708.94;5980864;29;20225;-75
2021/07/23 12:19:01;;;;;;;5.43;1.50;;;;;;;22.14;39.68;101710.69;5981150;29;20258;-75
2021/07/23 12:22:10;;;;;;;1.50;1.50;;;;;;;22.04;40.11;101710.66;5980810;29;20201;-75
2021/07/23 12:25:17;;;;;;;1.63;1.63;;;;;;;22.23;39.54;101700.75;5980235;29;20193;-75
2021/07/23 12:28:22;;;;;;;2.47;1.52;;;;;;;22.02;39.92;101699.00;5980937;29;20193;-76
2021/07/23 12:31:28;;;;;;;1.40;1.40;;;;;;;22.16;39.40;101702.91;5980674;29;20211;-75
2021/07/23 12:34:32;;;;;;;1.58;1.50;;;;;;;22.16;39.39;101713.22;5979492;29;20285;-75
2021/07/23 12:37:36;;;;;;;1.88;1.60;;;;;;;22.10;39.95;101706.81;5980603;29;20197;-75
2021/07/23 12:40:46;;;;;;;1.50;1.50;;;;;;;22.23;39.71;101703.53;5980525;29;20276;-75
2021/07/23 12:44:06;;;;;;;1.60;1.60;;;;;;;22.03;39.58;101703.47;5980171;29;20302;-75
2021/07/23 12:47:16;;;;;;;1.60;1.50;;;;;;;22.24;39.25;101705.16;5979615;29;20193;-75
2021/07/23 12:50:21;;;;;;;2.47;1.55;;;;;;;22.26;39.34;101702.94;5994154;29;20382;-75
2021/07/23 12:53:28;;;;;;;1.58;1.48;;;;;;;22.36;39.34;101694.66;5979269;29;20222;-75
2021/07/23 12:56:36;;;;;;;6.28;1.60;;;;;;;22.59;39.13;101692.47;5980296;29;20193;-75
2021/07/23 12:59:40;;;;;;;1.80;1.80;;;;;;;22.61;39.81;101698.59;5994042;29;20279;-75
2021/07/23 13:02:45;;;;;;;2.20;2.03;;;;;;;22.43;39.90;101703.56;5978597;29;20550;-75
2021/07/23 13:05:52;;;;;;;1.35;1.25;;;;;;;22.17;39.32;101693.47;5980082;29;20272;-74
2021/07/23 13:08:59;;;;;;;2.92;1.80;;;;;;;22.34;39.63;101709.94;5978700;29;20500;-74
2021/07/23 13:12:07;;;;;;;3.33;1.77;;;;;;;22.35;39.83;101706.88;5978043;29;20216;-75
2021/07/23 13:15:11;;;;;;;1.50;1.50;;;;;;;22.64;39.50;101689.72;5978471;29;20203;-75
2021/07/23 13:18:18;;;;;;;1.60;1.50;;;;;;;22.70;38.60;101699.75;5980014;29;20456;-75
2021/07/23 13:21:24;;;;;;;2.25;1.65;;;;;;;22.85;38.45;101705.31;5982554;29;20224;-75
2021/07/23 13:24:28;;;;;;;2.72;1.50;;;;;;;22.78;38.54;101702.78;5984594;29;20298;-76
2021/07/23 13:27:34;;;;;;;1.73;1.63;;;;;;;23.00;38.20;101703.38;5983135;29;20224;-75
2021/07/23 13:30:38;;;;;;;2.67;1.40;;;;;;;22.99;39.20;101711.97;5983811;29;20192;-75
2021/07/23 13:33:43;;;;;;;1.33;1.33;;;;;;;23.07;38.55;101703.06;5983078;29;20412;-76
2021/07/23 13:36:52;;;;;;;1.67;1.65;;;;;;;23.02;38.94;101698.34;5983194;29;20196;-76
2021/07/23 13:40:03;;;;;;;1.50;1.50;;;;;;;23.14;38.34;101703.63;5984000;29;20200;-75
2021/07/23 13:43:14;;;;;;;1.88;1.60;;;;;;;23.76;36.37;101699.63;5983001;29;20245;-75
2021/07/23 13:46:18;;;;;;;1.90;1.90;;;;;;;24.65;35.54;101702.25;5982252;29;20247;-75
2021/07/23 13:49:22;;;;;;;2.08;1.95;;;;;;;25.01;34.93;101705.63;5983249;29;20194;-76
2021/07/23 13:52:26;;;;;;;1.70;1.70;;;;;;;24.93;33.82;101700.69;5984048;29;20247;-75
2021/07/23 13:55:30;;;;;;;5.15;1.80;;;;;;;24.42;34.60;101714.94;5983882;29;20224;-75
2021/07/23 13:58:36;;;;;;;1.77;1.77;;;;;;;24.53;35.07;101699.81;5983743;29;20273;-76
2021/07/23 14:01:40;;;;;;;3.60;2.10;;;;;;;24.52;37.04;101703.75;5983382;29;20287;-76
2021/07/23 14:04:48;;;;;;;2.33;2.05;;;;;;;24.45;36.67;101697.63;5982558;29;20459;-75
2021/07/23 14:07:52;;;;;;;1.60;1.30;;;;;;;24.54;37.62;101698.72;5981914;29;20247;-75
2021/07/23 14:10:57;;;;;;;3.35;1.90;;;;;;;24.30;36.49;101694.94;5982757;29;20200;-75
2021/07/23 14:14:04;;;;;;;5.18;1.83;;;;;;;24.18;36.10;101700.03;5982077;29;20484;-75
2021/07/23 14:17:09;;;;;;;3.75;1.70;;;;;;;24.04;36.30;101696.16;5983627;29;20267;-76
2021/07/23 14:20:14;;;;;;;1.95;1.48;;;;;;;24.00;35.77;101695.91;5983255;29;20273;-75
2021/07/23 14:23:18;;;;;;;1.70;1.60;;;;;;;24.19;35.40;101687.78;5983236;29;20197;-75
2021/07/23 14:26:22;;;;;;;2.97;1.63;;;;;;;24.32;35.24;101687.13;5982292;29;20258;-75
2021/07/23 14:29:28;;;;;;;2.53;1.70;;;;;;;24.31;35.54;101685.47;5982954;29;20224;-75
2021/07/23 14:32:32;;;;;;;1.77;1.70;;;;;;;24.21;35.56;101691.09;5980774;29;20471;-75